Time;durP1;ratioP1;P1;durP2;ratioP2;P2;SDS_P1;SDS_P2;PMS_P1;PMS_P2;Temp;Humidity;BMP_temperature;BMP_pressure;BME280_temperature;BME280_humidity;BME280_pressure;Samples;Min_cycle;Max_cycle;Signal;HPM_P1;HPM_P2
2021/09/09 00:00:55;;;;;;;14.00;7.97;;;14.60;70.90;;;;;;5040562;28;20028;-71
2021/09/09 00:03:21;;;;;;;14.90;8.07;;;14.50;71.10;;;;;;5064386;28;20021;-70
2021/09/09 00:05:47;;;;;;;10.60;6.43;;;14.60;70.40;;;;;;5065555;28;20035;-71
2021/09/09 00:08:13;;;;;;;9.25;5.75;;;14.50;70.50;;;;;;5057324;28;20391;-71
2021/09/09 00:10:38;;;;;;;10.32;6.80;;;14.50;71.20;;;;;;5069433;28;20033;-71
2021/09/09 00:13:04;;;;;;;8.60;6.20;;;14.40;71.70;;;;;;5059069;28;20032;-71
2021/09/09 00:15:30;;;;;;;30.42;17.17;;;14.40;71.50;;;;;;5066558;28;20025;-71
2021/09/09 00:17:56;;;;;;;8.77;6.40;;;14.30;72.20;;;;;;5072744;28;20029;-70
2021/09/09 00:20:22;;;;;;;14.45;7.53;;;14.30;71.80;;;;;;5054401;28;20149;-71
2021/09/09 00:22:47;;;;;;;9.35;6.05;;;14.20;72.10;;;;;;5038520;28;20032;-70
2021/09/09 00:25:13;;;;;;;8.63;5.97;;;14.20;72.10;;;;;;5047343;28;20032;-70
2021/09/09 00:27:39;;;;;;;11.00;6.15;;;14.10;72.20;;;;;;5063849;28;20060;-71
2021/09/09 00:30:06;;;;;;;10.10;7.13;;;14.00;72.60;;;;;;5040067;28;20048;-71
2021/09/09 00:32:31;;;;;;;11.65;6.68;;;14.00;72.60;;;;;;5068726;28;20464;-71
2021/09/09 00:34:57;;;;;;;9.60;6.90;;;14.00;73.00;;;;;;5040230;28;20104;-71
2021/09/09 00:37:22;;;;;;;14.48;8.85;;;14.00;73.30;;;;;;5063740;28;20044;-71
2021/09/09 00:39:48;;;;;;;9.18;6.10;;;14.00;73.00;;;;;;5064959;28;20165;-71
2021/09/09 00:42:14;;;;;;;7.45;5.82;;;14.00;73.10;;;;;;5041171;28;20063;-70
2021/09/09 00:44:39;;;;;;;18.63;9.73;;;14.00;73.00;;;;;;5055461;28;20036;-71
2021/09/09 00:47:07;;;;;;;11.43;6.03;;;13.90;73.30;;;;;;5072786;28;20032;-71
2021/09/09 00:49:35;;;;;;;11.23;7.38;;;13.90;73.10;;;;;;5062731;28;20436;-70
2021/09/09 00:52:02;;;;;;;9.35;6.97;;;13.80;73.10;;;;;;5066759;28;20474;-71
2021/09/09 00:54:28;;;;;;;19.67;11.18;;;13.80;73.10;;;;;;5055884;28;20040;-71
2021/09/09 00:56:53;;;;;;;10.93;5.93;;;13.80;73.50;;;;;;5067736;28;20044;-71
2021/09/09 00:59:19;;;;;;;12.65;8.88;;;13.80;73.50;;;;;;5060919;28;20036;-71
2021/09/09 01:01:46;;;;;;;12.90;6.97;;;13.80;73.10;;;;;;5060377;28;20025;-71
2021/09/09 01:04:13;;;;;;;19.30;11.75;;;13.80;73.30;;;;;;5067737;28;20024;-71
2021/09/09 01:06:39;;;;;;;11.15;7.53;;;13.80;73.90;;;;;;5037409;28;20068;-71
2021/09/09 01:09:04;;;;;;;9.43;5.80;;;13.70;73.60;;;;;;5065691;28;20056;-70
2021/09/09 01:11:30;;;;;;;28.95;15.80;;;13.70;73.40;;;;;;5061948;28;20029;-70
2021/09/09 01:14:06;;;;;;;19.63;9.48;;;13.60;74.00;;;;;;5043814;28;20023;-71
2021/09/09 01:16:32;;;;;;;9.82;6.63;;;13.60;73.60;;;;;;5058746;28;20108;-71
2021/09/09 01:18:57;;;;;;;15.07;6.10;;;13.60;73.50;;;;;;5072214;28;20052;-70
2021/09/09 01:21:23;;;;;;;14.43;8.32;;;13.60;73.20;;;;;;5062927;28;20100;-71
2021/09/09 01:23:51;;;;;;;23.23;14.98;;;13.60;73.10;;;;;;5064198;28;20029;-71
2021/09/09 01:26:16;;;;;;;12.02;6.18;;;13.60;73.20;;;;;;5037735;28;20475;-70
2021/09/09 01:28:42;;;;;;;8.77;6.28;;;13.60;72.80;;;;;;5068311;28;20100;-71
2021/09/09 01:31:07;;;;;;;7.65;5.25;;;13.60;73.00;;;;;;5058724;28;20048;-71
2021/09/09 01:33:33;;;;;;;9.75;5.95;;;13.60;73.20;;;;;;5042577;28;20024;-70
2021/09/09 01:35:58;;;;;;;8.23;5.70;;;13.50;73.70;;;;;;5065542;28;20035;-70
2021/09/09 01:38:24;;;;;;;8.40;5.18;;;13.50;74.10;;;;;;5055033;28;20029;-71
2021/09/09 01:40:50;;;;;;;7.93;6.05;;;13.40;73.90;;;;;;5067260;28;20020;-70
2021/09/09 01:43:16;;;;;;;10.85;6.57;;;13.40;74.40;;;;;;5054546;28;20386;-70
2021/09/09 01:45:42;;;;;;;9.38;6.25;;;13.30;74.60;;;;;;5062830;28;20043;-70
2021/09/09 01:48:08;;;;;;;8.05;6.18;;;13.30;74.70;;;;;;5071460;28;20070;-70
2021/09/09 01:50:35;;;;;;;10.13;5.95;;;13.20;74.90;;;;;;5054724;28;20052;-70
2021/09/09 01:53:01;;;;;;;8.05;5.95;;;13.20;74.80;;;;;;5065343;28;20039;-71
2021/09/09 01:55:26;;;;;;;9.60;6.15;;;13.20;74.80;;;;;;5042933;28;20541;-71
2021/09/09 01:57:52;;;;;;;12.15;6.63;;;13.20;74.30;;;;;;5040486;28;20470;-71
2021/09/09 02:00:17;;;;;;;12.48;6.35;;;13.20;74.00;;;;;;5067744;28;20535;-71
2021/09/09 02:02:43;;;;;;;10.68;6.43;;;13.30;73.80;;;;;;5054611;28;20604;-71
2021/09/09 02:05:11;;;;;;;14.38;6.55;;;13.30;73.90;;;;;;5064215;28;20029;-70
2021/09/09 02:07:37;;;;;;;10.88;6.05;;;13.30;73.90;;;;;;5062215;28;20486;-71
2021/09/09 02:10:03;;;;;;;9.48;6.63;;;13.30;74.00;;;;;;5038998;28;20032;-71
2021/09/09 02:12:29;;;;;;;11.70;6.15;;;13.20;74.50;;;;;;5067285;28;20035;-71
2021/09/09 02:14:54;;;;;;;9.27;6.10;;;13.30;74.30;;;;;;5057587;28;20021;-71
2021/09/09 02:17:20;;;;;;;11.95;7.90;;;13.20;74.20;;;;;;5062977;28;20025;-71
2021/09/09 02:19:45;;;;;;;6.93;5.50;;;13.10;74.60;;;;;;5053277;28;20027;-71
2021/09/09 02:22:11;;;;;;;12.57;6.82;;;13.10;74.50;;;;;;5055598;28;20505;-71
2021/09/09 02:24:36;;;;;;;10.07;7.05;;;13.00;74.60;;;;;;5067523;28;20346;-71
2021/09/09 02:27:02;;;;;;;9.88;6.72;;;13.00;74.70;;;;;;5057197;28;20024;-70
2021/09/09 02:29:28;;;;;;;10.80;6.75;;;13.00;74.70;;;;;;5061579;28;20501;-70
2021/09/09 02:31:53;;;;;;;11.93;6.43;;;13.00;74.60;;;;;;5046347;28;20024;-72
2021/09/09 02:34:19;;;;;;;11.63;7.93;;;13.00;74.80;;;;;;5036358;28;20029;-71
2021/09/09 02:36:44;;;;;;;10.18;7.13;;;13.00;74.90;;;;;;5067311;28;20024;-72
2021/09/09 02:39:10;;;;;;;8.73;6.60;;;13.00;74.70;;;;;;5058222;28;20016;-71
2021/09/09 02:41:35;;;;;;;11.30;6.55;;;13.00;74.80;;;;;;5042256;28;20021;-72
2021/09/09 02:44:01;;;;;;;11.55;6.10;;;13.00;74.50;;;;;;5053933;28;20035;-72
2021/09/09 02:46:26;;;;;;;7.70;5.78;;;13.00;74.60;;;;;;5071959;28;20119;-72
2021/09/09 02:48:52;;;;;;;10.45;6.35;;;13.00;74.90;;;;;;5069893;28;20017;-72
2021/09/09 02:51:17;;;;;;;7.25;5.55;;;12.90;75.10;;;;;;5044869;28;20066;-72
2021/09/09 02:53:43;;;;;;;7.85;5.97;;;12.80;75.60;;;;;;5044859;28;20017;-72
2021/09/09 02:56:09;;;;;;;13.07;6.38;;;12.80;75.90;;;;;;5051778;28;20383;-72
2021/09/09 02:58:35;;;;;;;11.30;7.47;;;12.70;76.10;;;;;;5057770;28;20028;-71
2021/09/09 03:01:00;;;;;;;12.48;6.93;;;12.70;76.30;;;;;;5050717;28;20025;-71
2021/09/09 03:03:26;;;;;;;10.90;6.80;;;12.60;76.50;;;;;;5063640;28;20021;-71
2021/09/09 03:05:51;;;;;;;15.00;7.55;;;12.60;76.60;;;;;;5061416;28;20032;-72
2021/09/09 03:08:17;;;;;;;14.18;6.53;;;12.60;76.60;;;;;;5070653;28;20031;-72
2021/09/09 03:10:42;;;;;;;24.23;17.75;;;12.60;76.90;;;;;;5039605;28;20016;-72
2021/09/09 03:13:08;;;;;;;42.78;27.88;;;12.60;77.00;;;;;;5067095;28;20230;-72
2021/09/09 03:15:33;;;;;;;21.13;13.25;;;12.60;76.90;;;;;;5042485;28;20017;-72
2021/09/09 03:17:59;;;;;;;17.20;10.02;;;12.70;77.00;;;;;;5071271;28;20024;-72
2021/09/09 03:20:24;;;;;;;12.48;7.85;;;12.70;76.70;;;;;;5054761;28;20027;-72
2021/09/09 03:22:50;;;;;;;19.10;9.85;;;12.70;76.80;;;;;;5058150;28;20031;-72
2021/09/09 03:25:17;;;;;;;11.38;7.43;;;12.60;77.00;;;;;;5066131;28;20056;-72
2021/09/09 03:27:42;;;;;;;101.20;59.10;;;12.60;77.00;;;;;;5065389;28;20025;-72
2021/09/09 03:30:08;;;;;;;18.70;10.48;;;12.70;76.80;;;;;;5041008;28;20083;-72
2021/09/09 03:32:34;;;;;;;19.88;11.43;;;12.70;76.90;;;;;;5070160;28;20421;-72
2021/09/09 03:35:00;;;;;;;12.48;8.43;;;12.70;77.30;;;;;;5059348;28;20021;-72
2021/09/09 03:37:25;;;;;;;13.80;7.53;;;12.60;77.30;;;;;;5046627;28;20024;-72
2021/09/09 03:39:51;;;;;;;12.45;7.90;;;12.60;77.40;;;;;;5066490;28;20051;-72
2021/09/09 03:42:16;;;;;;;13.80;7.80;;;12.50;77.40;;;;;;5042798;28;20063;-71
2021/09/09 03:44:42;;;;;;;22.92;12.07;;;12.60;77.10;;;;;;5056755;28;20104;-71
2021/09/09 03:47:07;;;;;;;13.77;8.80;;;12.60;77.40;;;;;;5073706;28;20025;-71
2021/09/09 03:49:33;;;;;;;15.95;9.25;;;12.60;77.00;;;;;;5063220;28;20441;-72
2021/09/09 03:51:58;;;;;;;18.83;11.50;;;12.70;76.90;;;;;;5067582;28;20098;-72
2021/09/09 03:54:24;;;;;;;14.23;8.30;;;12.70;77.30;;;;;;5056488;28;20029;-72
2021/09/09 03:56:49;;;;;;;12.93;9.07;;;12.80;76.60;;;;;;5068168;28;20023;-71
2021/09/09 03:59:15;;;;;;;7.70;6.30;;;12.80;76.70;;;;;;5061031;28;20401;-71
2021/09/09 04:01:40;;;;;;;13.32;9.10;;;12.70;76.40;;;;;;5061673;28;20021;-72
2021/09/09 04:04:06;;;;;;;17.02;10.23;;;12.70;77.00;;;;;;5067432;28;20074;-69
2021/09/09 04:06:31;;;;;;;17.75;10.30;;;12.70;77.70;;;;;;5056422;28;20376;-70
2021/09/09 04:08:57;;;;;;;14.60;7.90;;;12.80;78.30;;;;;;5049604;28;20406;-70
2021/09/09 04:11:22;;;;;;;14.60;9.20;;;12.80;77.30;;;;;;5061725;28;20544;-71
2021/09/09 04:13:48;;;;;;;14.88;9.82;;;12.80;77.60;;;;;;5062472;28;20021;-70
2021/09/09 04:16:13;;;;;;;22.63;11.65;;;12.80;77.40;;;;;;5059550;28;20029;-71
2021/09/09 04:18:39;;;;;;;15.48;8.95;;;12.80;78.00;;;;;;5072775;28;20024;-71
2021/09/09 04:21:05;;;;;;;33.78;12.25;;;12.80;77.60;;;;;;5066275;28;20020;-70
2021/09/09 04:23:30;;;;;;;12.82;9.18;;;12.90;78.90;;;;;;5062341;28;20020;-71
2021/09/09 04:25:56;;;;;;;17.08;8.88;;;12.90;77.60;;;;;;5041140;28;20025;-70
2021/09/09 04:28:21;;;;;;;18.90;11.98;;;12.80;77.30;;;;;;5051119;28;20393;-70
2021/09/09 04:30:48;;;;;;;19.20;11.35;;;12.90;78.10;;;;;;5056389;28;20497;-70
2021/09/09 04:33:14;;;;;;;19.83;13.95;;;12.90;78.70;;;;;;5064354;28;20024;-71
2021/09/09 04:35:39;;;;;;;17.10;10.50;;;12.80;80.00;;;;;;5063440;28;20017;-71
2021/09/09 04:38:05;;;;;;;19.73;10.00;;;12.80;78.30;;;;;;5039674;28;20104;-71
2021/09/09 04:40:30;;;;;;;14.00;9.32;;;12.90;78.20;;;;;;5068795;28;20086;-70
2021/09/09 04:42:56;;;;;;;13.00;7.15;;;12.80;78.10;;;;;;5055241;28;20026;-71
2021/09/09 04:45:22;;;;;;;12.48;7.68;;;12.80;77.10;;;;;;5054078;28;20094;-71
2021/09/09 04:47:47;;;;;;;21.98;9.80;;;12.90;76.80;;;;;;5054225;28;20040;-71
2021/09/09 04:50:13;;;;;;;14.45;9.57;;;12.90;77.40;;;;;;5038412;28;20025;-71
2021/09/09 04:52:38;;;;;;;12.57;7.78;;;12.90;77.70;;;;;;5068039;28;20307;-71
2021/09/09 04:55:04;;;;;;;10.32;7.13;;;12.90;77.20;;;;;;5058692;28;20024;-71
2021/09/09 04:57:30;;;;;;;10.45;6.82;;;13.00;76.20;;;;;;5062030;28;20033;-71
2021/09/09 04:59:55;;;;;;;10.00;6.90;;;13.20;75.70;;;;;;5065149;28;20029;-71
2021/09/09 05:02:21;;;;;;;10.15;6.20;;;;;;;;;;5054984;28;20033;-70
2021/09/09 05:04:47;;;;;;;8.32;5.82;;;;;;;;;;5067418;28;20494;-71
2021/09/09 05:07:13;;;;;;;12.07;6.38;;;16.00;65.50;;;;;;5041222;28;20153;-70
2021/09/09 05:09:38;;;;;;;17.05;5.93;;;16.30;64.40;;;;;;5059594;28;20029;-71
2021/09/09 05:12:04;;;;;;;8.68;5.47;;;16.70;61.70;;;;;;5065650;28;20401;-71
2021/09/09 05:14:30;;;;;;;9.02;5.60;;;17.10;60.60;;;;;;5058736;28;20385;-71
2021/09/09 05:16:55;;;;;;;14.60;5.68;;;17.60;58.60;;;;;;5041316;28;20021;-70
2021/09/09 05:19:21;;;;;;;9.63;5.80;;;18.50;56.60;;;;;;5071241;28;20042;-72
2021/09/09 05:21:46;;;;;;;11.13;5.60;;;18.60;55.40;;;;;;5059242;28;20025;-70
2021/09/09 05:24:12;;;;;;;9.80;5.75;;;19.20;54.40;;;;;;5048239;28;20032;-71
2021/09/09 05:26:38;;;;;;;13.07;5.80;;;19.40;52.10;;;;;;5054401;28;20180;-71
2021/09/09 05:29:03;;;;;;;7.97;5.45;;;19.50;53.50;;;;;;5065190;28;20013;-72
2021/09/09 05:31:29;;;;;;;11.00;6.03;;;20.50;51.30;;;;;;5042971;28;20078;-71
2021/09/09 05:33:54;;;;;;;9.23;5.28;;;21.00;48.30;;;;;;5039331;28;20021;-70
2021/09/09 05:36:20;;;;;;;13.98;5.22;;;21.40;47.30;;;;;;5067630;28;20429;-71
2021/09/09 05:38:45;;;;;;;6.75;5.35;;;21.40;46.60;;;;;;5036823;28;20523;-71
2021/09/09 05:41:11;;;;;;;8.50;5.38;;;21.90;46.30;;;;;;5050594;28;20035;-71
2021/09/09 05:43:36;;;;;;;12.23;5.95;;;21.90;46.40;;;;;;5069069;28;20031;-72
2021/09/09 05:46:02;;;;;;;9.93;5.93;;;22.50;44.50;;;;;;5077996;22;20045;-68
2021/09/09 05:48:27;;;;;;;11.25;6.07;;;22.50;45.20;;;;;;5069376;28;20105;-69
2021/09/09 05:50:53;;;;;;;13.00;5.72;;;22.70;43.60;;;;;;5070499;28;20154;-69
2021/09/09 05:53:18;;;;;;;9.13;5.43;;;23.20;42.70;;;;;;5070260;28;20021;-69
2021/09/09 05:55:44;;;;;;;11.30;5.60;;;22.90;43.40;;;;;;5067940;28;20077;-69
2021/09/09 05:58:10;;;;;;;10.75;5.57;;;23.40;41.70;;;;;;5069349;28;20024;-69
2021/09/09 06:00:35;;;;;;;14.20;5.15;;;22.90;43.20;;;;;;5069542;28;20043;-69
2021/09/09 06:03:02;;;;;;;11.20;5.70;;;22.80;43.30;;;;;;5059461;28;20375;-68
2021/09/09 06:05:28;;;;;;;9.80;5.35;;;22.70;43.80;;;;;;5069324;28;20074;-69
2021/09/09 06:07:54;;;;;;;9.15;5.97;;;23.20;43.80;;;;;;5067867;28;20032;-69
2021/09/09 06:10:19;;;;;;;10.77;5.35;;;23.90;42.40;;;;;;5070170;28;20026;-70
2021/09/09 06:12:45;;;;;;;9.85;5.25;;;25.00;39.60;;;;;;5070657;28;20017;-68
2021/09/09 06:15:11;;;;;;;9.45;6.05;;;25.00;38.60;;;;;;5071004;28;20061;-67
2021/09/09 06:17:37;;;;;;;6.95;4.90;;;24.50;40.50;;;;;;5066183;28;20021;-66
2021/09/09 06:20:04;;;;;;;15.90;5.15;;;24.50;39.90;;;;;;5072563;28;20096;-72
2021/09/09 06:22:29;;;;;;;8.85;5.32;;;24.40;39.40;;;;;;5074790;28;20036;-71
2021/09/09 06:24:55;;;;;;;7.90;5.32;;;23.70;41.60;;;;;;5073453;28;20024;-70
2021/09/09 06:27:21;;;;;;;8.45;5.25;;;23.50;42.00;;;;;;5074786;28;20048;-71
2021/09/09 06:29:46;;;;;;;10.38;4.75;;;23.70;42.90;;;;;;5074974;28;20077;-72
2021/09/09 06:32:12;;;;;;;8.77;4.32;;;25.10;40.30;;;;;;5074923;28;20397;-73
2021/09/09 06:34:37;;;;;;;10.27;5.10;;;25.40;38.50;;;;;;5073192;28;20020;-73
2021/09/09 06:37:03;;;;;;;9.40;4.57;;;25.40;38.40;;;;;;5074480;28;20017;-72
2021/09/09 06:39:29;;;;;;;9.60;5.57;;;25.70;38.60;;;;;;5074721;28;20017;-70
2021/09/09 06:41:54;;;;;;;14.07;6.15;;;26.40;36.50;;;;;;5074983;28;20027;-68
2021/09/09 06:44:20;;;;;;;7.40;5.13;;;25.10;39.70;;;;;;5074466;28;20029;-69
2021/09/09 06:46:45;;;;;;;7.88;5.03;;;24.50;39.90;;;;;;5074433;28;20043;-72
2021/09/09 06:49:11;;;;;;;6.05;4.55;;;23.90;41.60;;;;;;5075329;28;20017;-73
2021/09/09 06:51:39;;;;;;;165.15;86.93;;;24.30;41.50;;;;;;5074359;28;20035;-72
2021/09/09 06:54:05;;;;;;;10.63;6.32;;;24.00;41.40;;;;;;5072751;28;20056;-72
2021/09/09 06:56:30;;;;;;;29.63;14.23;;;24.20;41.40;;;;;;5072934;28;20536;-70
2021/09/09 06:58:56;;;;;;;13.45;8.05;;;25.00;39.60;;;;;;5074374;28;20090;-71
2021/09/09 07:01:22;;;;;;;13.90;7.60;;;25.80;38.80;;;;;;5073044;28;20020;-71
2021/09/09 07:03:48;;;;;;;16.30;9.85;;;26.40;37.40;;;;;;5072586;28;20021;-70
2021/09/09 07:06:15;;;;;;;10.15;5.40;;;26.80;36.00;;;;;;5074228;28;20021;-68
2021/09/09 07:08:40;;;;;;;8.70;4.38;;;25.70;37.40;;;;;;5074170;28;20485;-69
2021/09/09 07:11:06;;;;;;;10.48;4.40;;;25.20;38.20;;;;;;5072898;28;20036;-69
2021/09/09 07:13:32;;;;;;;5.97;4.60;;;24.60;39.70;;;;;;5074146;28;20024;-70
2021/09/09 07:15:58;;;;;;;11.73;4.55;;;24.90;39.20;;;;;;5072734;28;20021;-68
2021/09/09 07:18:25;;;;;;;7.00;4.50;;;24.90;38.70;;;;;;5073882;28;20029;-68
2021/09/09 07:20:51;;;;;;;7.88;4.43;;;24.90;39.40;;;;;;5074360;28;20624;-68
2021/09/09 07:23:17;;;;;;;10.05;4.88;;;25.40;39.20;;;;;;5074265;28;20146;-68
2021/09/09 07:25:42;;;;;;;11.45;4.63;;;25.90;37.40;;;;;;5074454;28;20056;-72
2021/09/09 07:28:08;;;;;;;12.10;4.45;;;25.60;37.40;;;;;;5074267;28;20025;-72
2021/09/09 07:30:37;;;;;;;13.63;4.68;;;25.40;38.60;;;;;;5074308;28;20024;-70
2021/09/09 07:33:05;;;;;;;343.38;273.00;;;25.30;38.10;;;;;;5073131;28;20021;-73
2021/09/09 07:35:32;;;;;;;74.03;40.33;;;25.40;39.50;;;;;;5072949;28;20454;-72
2021/09/09 07:37:58;;;;;;;33.22;17.83;;;25.40;39.10;;;;;;5073001;28;20546;-73
2021/09/09 07:40:27;;;;;;;7.10;4.25;;;25.40;39.20;;;;;;5074241;28;20429;-70
2021/09/09 07:42:52;;;;;;;9.27;4.60;;;25.50;38.20;;;;;;5069901;28;20153;-70
2021/09/09 07:45:21;;;;;;;9.63;5.90;;;25.50;38.60;;;;;;5072637;28;20038;-73
2021/09/09 07:47:47;;;;;;;8.25;5.22;;;25.50;39.10;;;;;;5074190;28;20062;-73
2021/09/09 07:50:12;;;;;;;10.15;6.13;;;25.60;38.20;;;;;;5073954;28;20031;-73
2021/09/09 07:52:42;;;;;;;7.70;4.32;;;25.70;37.90;;;;;;5072867;28;20055;-69
2021/09/09 07:55:09;;;;;;;11.43;4.70;;;25.60;38.00;;;;;;5072849;28;20436;-70
2021/09/09 07:57:35;;;;;;;9.35;4.13;;;25.40;38.60;;;;;;5072432;28;20087;-69
2021/09/09 08:00:01;;;;;;;11.05;4.95;;;25.60;38.20;;;;;;5074182;28;20025;-73
2021/09/09 08:02:26;;;;;;;20.75;15.07;;;25.00;39.40;;;;;;5072972;28;20024;-71
2021/09/09 08:04:52;;;;;;;67.05;49.88;;;25.10;39.60;;;;;;5073863;28;20518;-69
2021/09/09 08:07:17;;;;;;;16.83;12.45;;;25.40;40.20;;;;;;5073850;28;20017;-69
2021/09/09 08:09:43;;;;;;;18.55;10.30;;;26.00;38.70;;;;;;5075416;28;20135;-72
2021/09/09 08:12:08;;;;;;;68.10;52.30;;;26.60;37.60;;;;;;5075411;28;20048;-73
2021/09/09 08:14:39;;;;;;;17.65;11.65;;;27.40;36.30;;;;;;5074608;28;20123;-72
2021/09/09 08:17:07;;;;;;;31.70;23.25;;;27.40;35.60;;;;;;5073269;28;20028;-73
2021/09/09 08:19:36;;;;;;;16.17;5.82;;;27.20;35.30;;;;;;5072224;28;20494;-69
2021/09/09 08:22:02;;;;;;;16.95;9.55;;;26.60;35.90;;;;;;5074283;28;20072;-68
2021/09/09 08:24:30;;;;;;;10.07;7.45;;;26.60;36.30;;;;;;5074743;28;20125;-73
2021/09/09 08:26:58;;;;;;;6.88;5.97;;;26.70;36.60;;;;;;5074126;28;20024;-73
2021/09/09 08:29:27;;;;;;;37.80;26.45;;;26.30;37.60;;;;;;5072943;28;20024;-73
2021/09/09 08:31:53;;;;;;;15.93;8.65;;;26.70;37.50;;;;;;5074723;28;20100;-72
2021/09/09 08:34:27;;;;;;;15.75;7.18;;;27.30;36.30;;;;;;5074612;28;20056;-72
2021/09/09 08:36:56;;;;;;;115.55;87.70;;;26.90;35.40;;;;;;5058197;28;20091;-70
2021/09/09 08:39:24;;;;;;;8.20;4.93;;;26.90;37.80;;;;;;5072884;28;20103;-74
2021/09/09 08:41:49;;;;;;;7.22;4.50;;;26.90;36.60;;;;;;5073192;28;20024;-72
2021/09/09 08:44:18;;;;;;;10.05;5.95;;;27.40;36.50;;;;;;5071107;28;20022;-74
2021/09/09 08:46:47;;;;;;;21.17;12.65;;;27.20;36.50;;;;;;5072457;28;20056;-73
2021/09/09 08:49:17;;;;;;;9.18;5.57;;;27.00;35.60;;;;;;5071789;28;20056;-75
2021/09/09 08:51:45;;;;;;;19.57;7.00;;;26.30;36.60;;;;;;5073026;28;20103;-76
2021/09/09 08:54:11;;;;;;;10.02;4.45;;;26.00;38.40;;;;;;5072393;28;20262;-72
2021/09/09 08:56:39;;;;;;;11.70;7.40;;;26.30;37.40;;;;;;5072422;28;20028;-73
2021/09/09 08:59:04;;;;;;;12.57;6.80;;;26.60;37.30;;;;;;5072593;28;20104;-71
2021/09/09 09:01:30;;;;;;;11.70;4.80;;;26.70;36.90;;;;;;5072858;28;20107;-72
2021/09/09 09:03:57;;;;;;;17.20;5.10;;;26.50;36.20;;;;;;5072344;28;20038;-72
2021/09/09 09:06:26;;;;;;;7.28;4.53;;;26.30;36.50;;;;;;5072024;28;20024;-68
2021/09/09 09:08:57;;;;;;;8.27;5.18;;;25.90;37.30;;;;;;5072151;28;20017;-73
2021/09/09 09:11:37;;;;;;;7.13;4.35;;;25.80;37.40;;;;;;5071006;28;20482;-73
2021/09/09 09:14:05;;;;;;;9.48;5.05;;;25.60;37.90;;;;;;5072148;28;20035;-73
2021/09/09 09:16:30;;;;;;;10.65;6.78;;;25.50;38.80;;;;;;5072258;28;20020;-72
2021/09/09 09:18:58;;;;;;;6.15;4.78;;;25.20;38.70;;;;;;5068385;28;20017;-73
2021/09/09 09:21:24;;;;;;;8.13;4.75;;;25.50;37.70;;;;;;5072087;28;20028;-68
2021/09/09 09:23:53;;;;;;;10.50;5.47;;;25.50;39.00;;;;;;5070521;28;20024;-68
2021/09/09 09:26:18;;;;;;;5.13;4.10;;;25.90;38.50;;;;;;5071870;28;20036;-72
2021/09/09 09:28:49;;;;;;;11.50;6.07;;;25.90;38.10;;;;;;5071883;28;20027;-74
2021/09/09 09:31:16;;;;;;;12.73;7.35;;;26.20;38.00;;;;;;5071953;28;20096;-72
2021/09/09 09:33:56;;;;;;;7.95;4.47;;;26.50;37.70;;;;;;5071656;28;20029;-75
2021/09/09 09:36:26;;;;;;;11.18;6.47;;;26.60;36.20;;;;;;5071845;28;20067;-73
2021/09/09 09:38:54;;;;;;;9.73;4.53;;;26.10;37.90;;;;;;5054773;28;20044;-69
2021/09/09 09:41:23;;;;;;;9.77;4.43;;;26.00;37.20;;;;;;5071469;28;20095;-69
2021/09/09 09:43:54;;;;;;;5.72;4.55;;;25.60;37.80;;;;;;5067546;28;20052;-70
2021/09/09 09:46:25;;;;;;;8.82;4.78;;;25.50;38.60;;;;;;5071466;28;20115;-69
2021/09/09 09:48:51;;;;;;;7.17;5.40;;;25.50;38.70;;;;;;5055559;28;20016;-72
2021/09/09 09:51:37;;;;;;;59.42;33.92;;;25.30;38.60;;;;;;5071493;28;20021;-74
2021/09/09 09:54:10;;;;;;;11.88;5.00;;;25.20;39.40;;;;;;5071079;28;20051;-74
2021/09/09 09:56:37;;;;;;;57.67;31.52;;;24.90;39.90;;;;;;5071144;28;20025;-74
2021/09/09 09:59:03;;;;;;;12.00;5.25;;;25.30;40.60;;;;;;5071432;28;20482;-73
2021/09/09 10:01:30;;;;;;;5.85;4.13;;;25.30;39.00;;;;;;5071617;28;20028;-75
2021/09/09 10:04:00;;;;;;;8.25;4.43;;;25.10;38.70;;;;;;5070406;28;20021;-68
2021/09/09 10:06:26;;;;;;;6.65;4.47;;;24.90;39.90;;;;;;5072250;28;20073;-72
2021/09/09 10:08:52;;;;;;;7.85;4.45;;;24.80;40.00;;;;;;5072436;28;20551;-73
2021/09/09 10:11:18;;;;;;;7.95;5.45;;;24.90;40.60;;;;;;5071333;28;20025;-72
2021/09/09 10:13:43;;;;;;;10.85;4.50;;;25.00;40.20;;;;;;5070733;28;20024;-73
2021/09/09 10:16:09;;;;;;;11.32;4.57;;;24.80;40.30;;;;;;5071607;28;20482;-68
2021/09/09 10:18:36;;;;;;;7.97;4.55;;;24.70;40.30;;;;;;5070404;28;20031;-67
2021/09/09 10:21:03;;;;;;;18.08;4.78;;;24.70;41.00;;;;;;5069948;28;20044;-67
2021/09/09 10:23:28;;;;;;;8.05;4.72;;;24.70;40.80;;;;;;5071059;28;20016;-68
2021/09/09 10:25:59;;;;;;;7.97;4.80;;;24.60;41.40;;;;;;5071625;28;20024;-66
2021/09/09 10:28:43;;;;;;;12.70;4.88;;;24.60;40.30;;;;;;5072105;28;20074;-71
2021/09/09 10:31:21;;;;;;;8.20;5.05;;;24.40;41.00;;;;;;5071386;28;20073;-73
2021/09/09 10:33:48;;;;;;;5.55;4.57;;;24.50;41.10;;;;;;5069650;28;20048;-73
2021/09/09 10:36:40;;;;;;;8.48;4.88;;;24.60;41.10;;;;;;5070775;28;20057;-73
2021/09/09 10:39:08;;;;;;;7.97;4.50;;;24.60;40.90;;;;;;5057144;28;20021;-74
2021/09/09 10:41:34;;;;;;;6.82;4.47;;;24.60;40.20;;;;;;5070974;28;20108;-74
2021/09/09 10:44:02;;;;;;;9.10;4.63;;;24.70;39.80;;;;;;5066776;28;20546;-73
2021/09/09 10:46:37;;;;;;;8.38;4.28;;;24.60;40.00;;;;;;5070614;28;20036;-73
2021/09/09 10:49:15;;;;;;;6.32;4.50;;;24.70;41.20;;;;;;5071395;28;20028;-75
2021/09/09 10:52:03;;;;;;;195.73;116.03;;;24.70;39.90;;;;;;5070822;28;20029;-72
2021/09/09 10:54:28;;;;;;;12.68;5.70;;;24.70;40.30;;;;;;5070446;28;20065;-72
2021/09/09 10:57:12;;;;;;;11.32;5.72;;;24.70;39.40;;;;;;5070559;28;20023;-74
2021/09/09 10:59:50;;;;;;;9.98;6.18;;;24.80;39.40;;;;;;5071010;28;20029;-72
2021/09/09 11:02:17;;;;;;;12.98;7.65;;;24.90;39.60;;;;;;5070865;28;20060;-70
2021/09/09 11:04:44;;;;;;;18.85;8.43;;;24.90;40.60;;;;;;5070578;28;20059;-72
2021/09/09 11:07:24;;;;;;;10.20;5.30;;;25.00;41.10;;;;;;5072141;28;20032;-71
2021/09/09 11:10:09;;;;;;;9.15;6.55;;;25.00;40.20;;;;;;5073131;28;20029;-72
2021/09/09 11:12:54;;;;;;;11.00;5.05;;;25.10;39.90;;;;;;5074041;28;20016;-70
2021/09/09 11:15:20;;;;;;;6.75;4.55;;;25.00;39.40;;;;;;5073127;28;20040;-68
2021/09/09 11:17:55;;;;;;;6.93;4.32;;;25.10;39.10;;;;;;5074363;28;20056;-68
2021/09/09 11:20:30;;;;;;;17.75;5.18;;;25.10;38.60;;;;;;5069165;28;20024;-73
2021/09/09 11:23:07;;;;;;;13.75;7.18;;;25.20;38.90;;;;;;5058594;28;20020;-72
2021/09/09 11:25:33;;;;;;;8.75;4.38;;;25.30;39.80;;;;;;5073972;28;20029;-72
2021/09/09 11:28:11;;;;;;;7.15;4.72;;;25.40;39.50;;;;;;5074200;28;20498;-73
2021/09/09 11:30:37;;;;;;;11.43;5.65;;;25.50;38.70;;;;;;5073877;28;20024;-72
2021/09/09 11:33:04;;;;;;;8.38;4.70;;;25.40;40.20;;;;;;5073632;28;20016;-72
2021/09/09 11:35:29;;;;;;;8.57;4.68;;;25.40;39.40;;;;;;5073741;28;20020;-70
2021/09/09 11:37:55;;;;;;;6.20;5.05;;;25.50;39.20;;;;;;5073513;28;20027;-72
2021/09/09 11:40:21;;;;;;;5.90;3.92;;;25.40;39.10;;;;;;5073542;28;20066;-71
2021/09/09 11:42:47;;;;;;;8.50;5.00;;;25.30;39.30;;;;;;5068153;28;20025;-70
2021/09/09 11:45:12;;;;;;;7.30;4.45;;;25.30;39.40;;;;;;5073443;28;20024;-70
2021/09/09 11:47:40;;;;;;;8.40;4.80;;;25.40;39.30;;;;;;5095764;22;20131;-71
2021/09/09 11:50:07;;;;;;;17.83;5.07;;;25.40;39.30;;;;;;5072132;28;20068;-71
2021/09/09 11:52:34;;;;;;;12.10;7.95;;;25.40;38.80;;;;;;5072672;28;20047;-68
2021/09/09 11:55:09;;;;;;;50.53;29.55;;;25.50;39.30;;;;;;5073084;28;20012;-68
2021/09/09 11:57:46;;;;;;;14.45;6.63;;;25.50;39.70;;;;;;5073145;28;20031;-69
2021/09/09 12:00:14;;;;;;;14.48;9.27;;;25.50;39.90;;;;;;5073182;28;20024;-66
2021/09/09 12:02:43;;;;;;;8.05;5.35;;;25.50;38.80;;;;;;5071394;28;20028;-69
2021/09/09 12:05:09;;;;;;;12.70;7.45;;;25.50;39.00;;;;;;5072998;28;20031;-68
2021/09/09 12:07:36;;;;;;;14.45;9.23;;;25.60;38.40;;;;;;5072745;28;20016;-68
2021/09/09 12:10:06;;;;;;;8.52;4.70;;;25.60;38.90;;;;;;5073001;28;20089;-67
2021/09/09 12:12:34;;;;;;;8.68;4.93;;;25.60;38.50;;;;;;5072340;28;20024;-66
2021/09/09 12:15:02;;;;;;;10.00;4.43;;;25.50;39.40;;;;;;5072654;28;20016;-67
2021/09/09 12:17:30;;;;;;;19.85;8.57;;;25.60;40.00;;;;;;5071824;28;20032;-68
2021/09/09 12:20:00;;;;;;;27.60;19.45;;;25.60;39.40;;;;;;5063003;28;20036;-68
2021/09/09 12:22:53;;;;;;;14.07;6.03;;;25.50;40.00;;;;;;5067568;28;20021;-72
2021/09/09 12:25:21;;;;;;;23.95;17.60;;;25.50;40.40;;;;;;5072447;28;20024;-67
2021/09/09 12:28:16;;;;;;;10.88;7.78;;;25.60;39.80;;;;;;5071060;28;20440;-68
2021/09/09 12:30:50;;;;;;;31.27;22.23;;;25.60;40.00;;;;;;5072391;28;20025;-68
2021/09/09 12:33:19;;;;;;;22.02;14.50;;;25.70;40.20;;;;;;5067667;28;20074;-68
2021/09/09 12:36:09;;;;;;;10.02;4.47;;;25.60;40.30;;;;;;5062022;28;20086;-69
2021/09/09 12:38:38;;;;;;;8.23;4.78;;;25.60;40.10;;;;;;5070338;28;20474;-72
2021/09/09 12:41:05;;;;;;;8.85;5.05;;;25.50;40.50;;;;;;5070814;28;20086;-69